Time;durP1;ratioP1;P1;durP2;ratioP2;P2;SDS_P1;SDS_P2;PMS_P1;PMS_P2;Temp;Humidity;BMP_temperature;BMP_pressure;BME280_temperature;BME280_humidity;BME280_pressure;Samples;Min_cycle;Max_cycle;Signal;HPM_P1;HPM_P2
2021/12/25 00:02:33;;;;;;;0.10;0.10;;;;;;;7.57;77.15;96551.78;6121473;28;20222;-90
2021/12/25 00:05:36;;;;;;;0.20;0.20;;;;;;;7.57;76.94;96538.63;6109247;28;20256;-90
2021/12/25 00:08:38;;;;;;;0.40;0.20;;;;;;;7.53;77.12;96526.72;6131696;28;20253;-89
2021/12/25 00:11:40;;;;;;;0.37;0.23;;;;;;;7.44;77.40;96522.28;6117704;28;20237;-90
2021/12/25 00:14:42;;;;;;;0.70;0.20;;;;;;;7.39;77.77;96530.53;6112745;28;20243;-90
2021/12/25 00:17:44;;;;;;;0.13;0.13;;;;;;;7.37;77.59;96536.91;6124052;28;20237;-89
2021/12/25 00:20:47;;;;;;;0.23;0.20;;;;;;;7.33;77.88;96533.69;6132585;28;20455;-90
2021/12/25 00:23:52;;;;;;;0.20;0.20;;;;;;;7.32;77.76;96537.28;6124954;28;20239;-89
2021/12/25 00:27:05;;;;;;;0.10;0.10;;;;;;;7.27;77.62;96533.41;6092848;28;20271;-89
2021/12/25 00:33:52;;;;;;;0.30;0.20;;;;;;;7.20;78.51;96529.63;6121855;29;20225;-89
2021/12/25 00:36:54;;;;;;;0.20;0.20;;;;;;;7.16;78.73;96544.81;6109423;29;20739;-89
2021/12/25 00:39:56;;;;;;;0.27;0.20;;;;;;;7.24;77.94;96549.41;6109097;28;20730;-90
2021/12/25 00:42:59;;;;;;;0.10;0.10;;;;;;;7.24;78.35;96544.16;6108231;28;20598;-90
2021/12/25 00:46:01;;;;;;;0.20;0.20;;;;;;;7.18;78.50;96542.88;6087181;29;20239;-90
2021/12/25 00:49:03;;;;;;;0.30;0.17;;;;;;;7.16;79.23;96552.69;6103755;28;20234;-89
2021/12/25 00:52:05;;;;;;;0.10;0.10;;;;;;;7.14;78.86;96553.75;6101274;28;20242;-89
2021/12/25 00:55:08;;;;;;;0.20;0.20;;;;;;;7.08;79.14;96555.13;6135327;28;20249;-90
2021/12/25 00:58:11;;;;;;;0.30;0.23;;;;;;;7.06;79.81;96545.72;6131890;28;20276;-89
2021/12/25 01:01:13;;;;;;;0.10;0.10;;;;;;;7.04;79.65;96543.22;6125757;28;20245;-90
2021/12/25 01:04:16;;;;;;;0.10;0.10;;;;;;;7.04;80.48;96548.47;6111165;28;20228;-89
2021/12/25 01:07:20;;;;;;;0.10;0.10;;;;;;;7.07;80.21;96548.22;6130779;28;20321;-90
2021/12/25 01:10:22;;;;;;;0.20;0.17;;;;;;;7.11;80.37;96552.22;6100307;29;20603;-90
2021/12/25 01:13:35;;;;;;;0.20;0.10;;;;;;;7.11;80.03;96564.50;6120879;28;20600;-89
2021/12/25 01:30:01;;;;;;;0.10;0.10;;;;;;;7.04;80.60;96569.44;6126869;28;20249;-89
2021/12/25 01:47:48;;;;;;;0.87;0.20;;;;;;;7.04;80.78;96559.78;6113706;29;20248;-90
2021/12/25 01:50:52;;;;;;;0.60;0.40;;;;;;;7.00;80.80;96550.50;6130528;28;20721;-90
2021/12/25 01:53:54;;;;;;;0.30;0.10;;;;;;;7.02;81.01;96553.81;6112353;29;20601;-89
2021/12/25 01:56:56;;;;;;;0.13;0.13;;;;;;;6.97;81.21;96558.66;6118579;28;20241;-90
2021/12/25 02:00:00;;;;;;;0.10;0.10;;;;;;;6.97;81.69;96561.28;6136620;28;20290;-89
2021/12/25 02:03:04;;;;;;;0.23;0.20;;;;;;;6.98;81.42;96559.47;6106231;28;20370;-90
2021/12/25 02:06:11;;;;;;;0.10;0.10;;;;;;;7.01;81.07;96559.19;6092561;28;20212;-89
2021/12/25 02:09:13;;;;;;;0.13;0.13;;;;;;;7.04;81.37;96562.41;6110962;28;20221;-89
2021/12/25 02:12:16;;;;;;;0.10;0.10;;;;;;;7.03;81.24;96552.03;6111735;28;20218;-89
2021/12/25 02:15:23;;;;;;;0.10;0.10;;;;;;;6.99;81.56;96543.59;6127969;28;20237;-89
2021/12/25 02:22:18;;;;;;;0.10;0.10;;;;;;;6.96;81.47;96549.13;6131354;28;20233;-90
2021/12/25 02:25:22;;;;;;;0.33;0.10;;;;;;;6.99;81.72;96548.84;6112719;28;20234;-90
2021/12/25 02:28:26;;;;;;;0.20;0.20;;;;;;;7.00;81.68;96547.03;6127888;28;20594;-89
2021/12/25 02:31:29;;;;;;;0.10;0.10;;;;;;;7.01;81.34;96546.09;6111930;28;20227;-89
2021/12/25 02:34:31;;;;;;;0.13;0.13;;;;;;;7.03;81.07;96549.41;6103866;28;20236;-89
2021/12/25 02:37:33;;;;;;;0.10;0.10;;;;;;;7.01;81.56;96551.31;6104220;29;20250;-90
2021/12/25 02:40:35;;;;;;;1.13;0.23;;;;;;;6.98;81.82;96557.69;6090269;28;20603;-89
2021/12/25 02:43:38;;;;;;;0.10;0.10;;;;;;;6.97;82.15;96550.78;6110544;28;20233;-91
2021/12/25 02:46:40;;;;;;;0.20;0.20;;;;;;;6.94;81.90;96561.50;6111952;28;20233;-89
2021/12/25 02:49:51;;;;;;;0.13;0.13;;;;;;;6.92;82.14;96550.31;6111030;28;20262;-89
2021/12/25 02:52:54;;;;;;;0.20;0.20;;;;;;;6.86;82.49;96558.72;6126737;28;20764;-89
2021/12/25 02:55:56;;;;;;;0.10;0.10;;;;;;;6.82;82.23;96570.41;6110426;28;20717;-89
2021/12/25 02:59:01;;;;;;;0.10;0.10;;;;;;;6.77;82.24;96561.25;6110608;28;20238;-89
2021/12/25 03:02:09;;;;;;;1.03;0.20;;;;;;;6.74;82.52;96556.25;6116981;28;20259;-89
2021/12/25 03:05:11;;;;;;;0.10;0.10;;;;;;;6.72;82.39;96555.56;6094414;28;20619;-89
2021/12/25 03:08:15;;;;;;;0.23;0.20;;;;;;;6.70;82.89;96557.47;6109480;28;20243;-89
2021/12/25 03:11:26;;;;;;;0.10;0.10;;;;;;;6.67;83.23;96561.19;6108874;28;20297;-89
2021/12/25 03:15:01;;;;;;;0.10;0.10;;;;;;;6.61;83.34;96554.66;6086791;29;20243;-89
2021/12/25 03:18:02;;;;;;;0.10;0.10;;;;;;;6.58;83.70;96560.16;6087150;29;20273;-89
2021/12/25 03:21:06;;;;;;;0.40;0.10;;;;;;;6.56;83.52;96548.13;6126357;28;20224;-89
2021/12/25 03:24:07;;;;;;;0.20;0.10;;;;;;;6.54;83.63;96552.66;6110655;28;20345;-90
2021/12/25 03:27:10;;;;;;;0.30;0.20;;;;;;;6.48;83.58;96551.41;6109962;28;20224;-89
2021/12/25 03:30:15;;;;;;;0.10;0.10;;;;;;;6.44;84.20;96547.34;6096455;29;20221;-89
2021/12/25 03:33:20;;;;;;;0.10;0.10;;;;;;;6.38;84.17;96563.59;6106891;28;20214;-89
2021/12/25 03:36:22;;;;;;;0.40;0.10;;;;;;;6.37;84.31;96566.31;6112068;28;20278;-89
2021/12/25 03:39:24;;;;;;;0.10;0.10;;;;;;;6.30;84.24;96563.34;6133826;28;20247;-89
2021/12/25 03:42:26;;;;;;;0.10;0.10;;;;;;;6.24;84.71;96562.06;6132856;28;20248;-90
2021/12/25 03:45:31;;;;;;;0.53;0.10;;;;;;;6.21;84.57;96566.72;6133547;28;20233;-90
2021/12/25 03:58:30;;;;;;;0.30;0.30;;;;;;;6.05;85.16;96563.69;6107636;28;20354;-90
2021/12/25 04:01:46;;;;;;;0.30;0.30;;;;;;;6.00;85.53;96561.41;6125244;28;20237;-90
2021/12/25 04:04:50;;;;;;;0.30;0.30;;;;;;;5.96;85.36;96551.31;6106683;28;20233;-89
2021/12/25 04:08:13;;;;;;;0.47;0.30;;;;;;;5.93;85.59;96568.09;6127380;28;20322;-90
2021/12/25 04:11:27;;;;;;;0.20;0.20;;;;;;;5.87;85.88;96574.63;6108600;28;20239;-90
2021/12/25 04:14:30;;;;;;;0.20;0.20;;;;;;;5.86;85.51;96572.13;6109400;28;20605;-89
2021/12/25 04:17:32;;;;;;;1.07;0.30;;;;;;;5.87;85.81;96576.41;6101996;29;20228;-90
2021/12/25 04:20:35;;;;;;;0.60;0.40;;;;;;;5.86;85.82;96588.69;6072521;28;20609;-89
2021/12/25 04:23:40;;;;;;;0.47;0.37;;;;;;;5.85;86.50;96581.78;6110008;28;20353;-89
2021/12/25 04:26:44;;;;;;;2.00;0.30;;;;;;;5.85;86.22;96573.91;6108877;28;20241;-89
2021/12/25 04:29:52;;;;;;;0.30;0.30;;;;;;;5.85;86.60;96568.69;6108040;28;20224;-89
2021/12/25 05:06:36;;;;;;;0.37;0.30;;;;;;;6.03;88.11;96573.44;6049218;29;20229;-89
2021/12/25 05:09:38;;;;;;;0.73;0.60;;;;;;;6.10;88.57;96574.59;6132073;28;20796;-89
2021/12/25 05:12:40;;;;;;;2.30;0.83;;;;;;;6.13;88.98;96576.97;6130806;28;20231;-91
2021/12/25 05:15:42;;;;;;;1.27;0.80;;;;;;;6.11;88.94;96574.47;6132270;28;20224;-91
2021/12/25 05:18:45;;;;;;;0.70;0.70;;;;;;;6.12;89.07;96570.06;6116184;28;20290;-89
2021/12/25 05:21:47;;;;;;;0.70;0.70;;;;;;;6.12;89.14;96570.06;6125556;28;20266;-90
2021/12/25 05:24:51;;;;;;;0.93;0.80;;;;;;;6.11;89.09;96578.88;6123564;28;20237;-90
2021/12/25 05:27:53;;;;;;;0.63;0.63;;;;;;;6.06;89.10;96575.81;6107897;28;20775;-89
2021/12/25 05:30:55;;;;;;;1.27;1.17;;;;;;;6.06;89.19;96592.38;6108153;28;20262;-89
2021/12/25 05:34:23;;;;;;;1.07;1.03;;;;;;;6.06;89.25;96588.91;6104717;28;20269;-90
2021/12/25 05:37:29;;;;;;;1.20;1.10;;;;;;;6.06;89.16;96591.53;6086366;29;20243;-89
2021/12/25 05:40:59;;;;;;;1.37;1.27;;;;;;;6.12;89.04;96575.31;6084964;28;20272;-89
2021/12/25 05:44:01;;;;;;;1.30;1.20;;;;;;;6.19;89.04;96585.16;6108154;28;20787;-89
2021/12/25 05:47:34;;;;;;;1.87;1.70;;;;;;;6.22;89.06;96589.34;6107264;28;20215;-90
2021/12/25 05:50:51;;;;;;;2.10;1.80;;;;;;;6.28;89.77;96588.88;6108041;28;20352;-89
2021/12/25 05:54:14;;;;;;;2.40;2.20;;;;;;;6.33;89.98;96593.72;6130940;28;20671;-90
2021/12/25 05:57:37;;;;;;;1.37;1.27;;;;;;;6.39;89.78;96595.88;6126579;28;20271;-89
2021/12/25 06:00:48;;;;;;;2.90;1.70;;;;;;;6.37;89.89;96593.34;6110194;28;20236;-90
2021/12/25 06:03:50;;;;;;;1.67;1.53;;;;;;;6.38;89.40;96594.19;6135780;28;20248;-89
2021/12/25 06:06:54;;;;;;;1.67;1.40;;;;;;;6.40;89.49;96589.63;6122984;28;20687;-90
2021/12/25 06:09:56;;;;;;;1.50;1.40;;;;;;;6.37;89.52;96579.44;6120011;28;20543;-90
2021/12/25 06:12:59;;;;;;;2.30;0.97;;;;;;;6.31;89.58;96588.59;6123593;28;20315;-89
2021/12/25 06:16:06;;;;;;;0.90;0.80;;;;;;;6.22;89.61;96594.56;6093221;28;20235;-90
2021/12/25 06:19:19;;;;;;;2.10;1.07;;;;;;;6.18;89.51;96595.81;6093633;29;20242;-89
2021/12/25 06:22:59;;;;;;;1.43;1.10;;;;;;;6.10;89.69;96599.00;6132307;28;20651;-90
2021/12/25 06:26:28;;;;;;;1.17;0.90;;;;;;;6.05;89.89;96595.94;6097821;28;20273;-90
2021/12/25 06:30:04;;;;;;;1.93;1.10;;;;;;;6.06;89.90;96612.47;6139878;28;20600;-90
2021/12/25 06:33:32;;;;;;;1.43;1.03;;;;;;;6.01;89.61;96598.91;6126749;28;20372;-90
2021/12/25 06:36:52;;;;;;;1.63;1.53;;;;;;;5.99;89.90;96592.97;6114320;28;20238;-89
2021/12/25 06:40:17;;;;;;;1.10;1.00;;;;;;;5.99;90.15;96592.97;6133945;28;20235;-90
2021/12/25 06:43:20;;;;;;;1.17;1.03;;;;;;;5.96;89.42;96599.28;6121934;29;20241;-90
2021/12/25 06:46:23;;;;;;;1.70;1.20;;;;;;;5.92;89.74;96597.84;6136865;28;20241;-89
2021/12/25 06:49:25;;;;;;;1.40;1.23;;;;;;;5.85;89.65;96596.66;6119673;28;20236;-90
2021/12/25 06:52:46;;;;;;;3.50;1.20;;;;;;;5.79;89.58;96597.13;6133839;28;20231;-89
2021/12/25 06:55:54;;;;;;;1.23;1.10;;;;;;;5.74;89.51;96599.28;6134424;28;20582;-89
2021/12/25 06:59:21;;;;;;;2.97;1.27;;;;;;;5.67;89.85;96613.78;6121716;28;20342;-90
2021/12/25 07:02:24;;;;;;;1.33;1.20;;;;;;;5.67;90.01;96611.19;6118858;28;20231;-90
2021/12/25 07:05:45;;;;;;;1.53;1.43;;;;;;;5.66;89.65;96620.81;6088685;29;20327;-89
2021/12/25 07:09:05;;;;;;;2.10;1.00;;;;;;;5.64;90.00;96609.63;6120837;28;20707;-90
2021/12/25 07:12:36;;;;;;;1.67;1.47;;;;;;;5.66;90.02;96606.91;6134866;28;20234;-90
2021/12/25 07:15:57;;;;;;;1.60;1.50;;;;;;;5.67;89.96;96621.66;6112559;28;20263;-90
2021/12/25 07:19:18;;;;;;;1.70;1.43;;;;;;;5.66;90.57;96617.38;6110928;28;20651;-90
2021/12/25 07:22:40;;;;;;;1.23;1.10;;;;;;;5.66;90.26;96615.56;6101991;29;20244;-90
2021/12/25 07:26:17;;;;;;;3.93;1.60;;;;;;;5.66;89.85;96618.19;6101198;28;20240;-90
2021/12/25 07:29:42;;;;;;;1.80;1.40;;;;;;;5.66;90.00;96617.38;6110318;28;20243;-90
2021/12/25 07:32:45;;;;;;;2.43;1.20;;;;;;;5.66;90.10;96625.22;6144757;28;20238;-90
2021/12/25 07:35:47;;;;;;;1.30;1.20;;;;;;;5.68;89.91;96624.16;6128485;28;20269;-90
2021/12/25 07:38:49;;;;;;;3.83;2.70;;;;;;;5.69;89.92;96632.84;6133872;28;20239;-90
2021/12/25 07:41:51;;;;;;;2.13;1.83;;;;;;;5.70;90.58;96635.31;6122767;28;20246;-90
2021/12/25 07:45:08;;;;;;;1.30;1.20;;;;;;;5.72;90.24;96637.81;6120856;28;20242;-90
2021/12/25 07:48:10;;;;;;;2.00;1.30;;;;;;;5.73;89.85;96640.31;6132961;28;20215;-90
2021/12/25 07:51:12;;;;;;;2.43;1.30;;;;;;;5.74;90.50;96644.59;6133194;28;20207;-90
2021/12/25 07:54:14;;;;;;;0.93;0.83;;;;;;;5.74;90.35;96641.97;6132710;28;20207;-90
2021/12/25 07:57:16;;;;;;;1.93;1.33;;;;;;;5.76;90.28;96637.47;6132866;28;20231;-90
2021/12/25 08:00:18;;;;;;;2.60;2.00;;;;;;;5.78;90.03;96645.22;6117999;28;20219;-90
2021/12/25 08:03:20;;;;;;;2.00;1.73;;;;;;;5.80;90.13;96641.50;6125616;28;20764;-90
2021/12/25 08:06:22;;;;;;;4.00;3.10;;;;;;;5.81;90.16;96653.63;6123474;28;20226;-90
2021/12/25 08:09:31;;;;;;;5.43;4.93;;;;;;;5.80;90.17;96651.13;6133509;28;20237;-90
2021/12/25 08:12:33;;;;;;;6.40;5.80;;;;;;;5.75;90.17;96648.88;6123765;28;20748;-90
2021/12/25 08:15:35;;;;;;;6.63;6.03;;;;;;;5.65;90.21;96654.94;6113961;28;20223;-90
2021/12/25 08:18:37;;;;;;;6.53;5.70;;;;;;;5.49;89.87;96655.31;6130070;28;20379;-90
2021/12/25 08:21:58;;;;;;;6.33;5.73;;;;;;;5.35;89.64;96658.13;6112530;28;20231;-90
2021/12/25 08:25:19;;;;;;;6.97;6.20;;;;;;;5.21;89.71;96653.91;6132506;28;20232;-90
2021/12/25 08:28:44;;;;;;;7.37;6.67;;;;;;;5.10;89.67;96661.75;6115035;28;20402;-90
2021/12/25 08:32:12;;;;;;;6.77;6.10;;;;;;;5.02;89.82;96670.16;6130642;28;20321;-90
2021/12/25 08:35:53;;;;;;;6.00;5.40;;;;;;;5.02;89.29;96671.94;6103673;28;20234;-90
2021/12/25 08:38:55;;;;;;;6.03;5.43;;;;;;;5.04;90.18;96680.50;6132061;28;20234;-90
2021/12/25 08:42:03;;;;;;;6.63;5.93;;;;;;;5.04;89.83;96677.91;6109708;28;20600;-90
2021/12/25 08:45:10;;;;;;;8.33;6.70;;;;;;;5.01;89.44;96681.56;6106643;28;20615;-91
2021/12/25 08:48:16;;;;;;;8.77;6.27;;;;;;;4.99;89.96;96674.81;6104961;28;20766;-90
2021/12/25 08:51:18;;;;;;;7.43;6.47;;;;;;;4.97;89.81;96666.22;6099757;29;20236;-90
2021/12/25 08:54:20;;;;;;;8.97;6.70;;;;;;;4.94;89.63;96661.22;6084659;29;20619;-90
2021/12/25 08:57:23;;;;;;;8.13;5.40;;;;;;;4.92;89.22;96663.94;6095669;28;20370;-90
2021/12/25 09:00:25;;;;;;;9.53;6.13;;;;;;;4.89;89.49;96668.59;6108725;28;20695;-90
2021/12/25 09:03:29;;;;;;;6.23;4.93;;;;;;;4.87;89.73;96660.03;6089669;28;20709;-89
2021/12/25 09:06:33;;;;;;;8.80;7.00;;;;;;;4.85;89.64;96665.34;6108441;28;20266;-89
2021/12/25 09:09:41;;;;;;;7.30;6.57;;;;;;;4.69;89.03;96670.84;6108890;28;20239;-89
2021/12/25 09:12:45;;;;;;;7.40;6.17;;;;;;;4.61;89.37;96667.13;6092228;28;20610;-90
2021/12/25 09:15:47;;;;;;;8.13;6.50;;;;;;;4.34;88.43;96683.88;6092039;28;20247;-90
2021/12/25 09:18:49;;;;;;;8.70;7.37;;;;;;;4.18;88.60;96679.84;6108802;28;20234;-90
2021/12/25 09:21:51;;;;;;;10.63;8.60;;;;;;;4.07;88.69;96672.78;6124111;28;20286;-89
2021/12/25 09:24:53;;;;;;;10.67;8.20;;;;;;;3.92;88.30;96676.44;6109439;28;20290;-89
2021/12/25 09:27:56;;;;;;;10.90;8.33;;;;;;;3.92;88.30;96686.88;6108846;28;20342;-89
2021/12/25 09:30:58;;;;;;;10.30;8.33;;;;;;;3.89;89.00;96681.91;6103825;28;20741;-89
2021/12/25 09:34:00;;;;;;;11.63;9.47;;;;;;;3.90;88.83;96673.94;6085960;29;20264;-89
2021/12/25 09:37:02;;;;;;;11.10;8.80;;;;;;;3.88;88.41;96672.41;6108573;28;20841;-90
2021/12/25 09:40:07;;;;;;;9.67;8.57;;;;;;;3.88;88.56;96673.22;6124597;28;20239;-89
2021/12/25 09:43:09;;;;;;;10.50;9.37;;;;;;;3.86;88.80;96682.09;6107788;28;20249;-89
2021/12/25 09:46:12;;;;;;;10.83;9.17;;;;;;;3.73;88.33;96676.88;6106802;28;20734;-90
2021/12/25 09:49:14;;;;;;;11.07;9.40;;;;;;;3.66;88.47;96686.91;6108364;28;20245;-89
2021/12/25 09:52:17;;;;;;;11.90;9.13;;;;;;;3.59;88.38;96685.66;6106322;28;20234;-89
2021/12/25 09:55:19;;;;;;;11.63;10.37;;;;;;;3.54;87.80;96698.19;6109494;28;20758;-90
2021/12/25 09:58:22;;;;;;;13.03;10.07;;;;;;;3.48;88.25;96718.66;6111032;28;20254;-89
2021/12/25 10:01:34;;;;;;;12.27;10.70;;;;;;;3.43;88.19;96720.72;6112444;28;20234;-90
2021/12/25 10:04:40;;;;;;;11.53;9.37;;;;;;;3.37;88.11;96708.09;6097904;29;20238;-90
2021/12/25 10:07:42;;;;;;;12.30;9.33;;;;;;;3.36;88.03;96707.25;6127433;28;20235;-90
2021/12/25 10:10:56;;;;;;;10.97;8.10;;;;;;;3.33;88.19;96699.63;6113178;28;20248;-90
2021/12/25 10:13:59;;;;;;;10.17;8.80;;;;;;;3.34;88.09;96690.88;6093710;29;20241;-89
2021/12/25 10:17:24;;;;;;;9.70;8.10;;;;;;;3.35;88.21;96684.72;6118595;28;20237;-89
2021/12/25 10:20:31;;;;;;;8.93;7.17;;;;;;;3.40;87.59;96679.19;6126558;28;20324;-90
2021/12/25 10:23:38;;;;;;;9.60;7.73;;;;;;;3.40;87.61;96689.63;6112518;28;20595;-90
2021/12/25 10:26:43;;;;;;;8.77;7.67;;;;;;;3.38;87.63;96678.47;6114276;28;20600;-90
2021/12/25 10:29:47;;;;;;;9.90;7.47;;;;;;;3.28;87.01;96668.66;6110768;28;20252;-90
2021/12/25 10:32:50;;;;;;;9.87;8.00;;;;;;;3.24;87.08;96669.81;6108671;29;20251;-90
2021/12/25 10:35:53;;;;;;;9.97;8.40;;;;;;;3.26;87.83;96683.56;6103746;29;20728;-89
2021/12/25 10:39:06;;;;;;;10.43;8.80;;;;;;;3.21;87.16;96676.97;6126105;28;20235;-90
2021/12/25 10:42:15;;;;;;;10.87;9.37;;;;;;;2.98;86.94;96675.94;6150912;28;20675;-90
2021/12/25 10:45:17;;;;;;;12.53;9.27;;;;;;;2.90;87.36;96688.59;6133847;28;20222;-90
2021/12/25 10:48:28;;;;;;;11.10;9.33;;;;;;;2.91;87.58;96706.75;6131711;28;20208;-89
2021/12/25 10:51:31;;;;;;;11.47;10.10;;;;;;;2.94;87.35;96692.69;6126437;28;20703;-89
2021/12/25 10:54:43;;;;;;;13.73;10.03;;;;;;;2.86;87.48;96687.16;6081314;29;20619;-89
2021/12/25 10:57:52;;;;;;;12.40;9.83;;;;;;;2.76;87.46;96679.09;6114445;28;20236;-90
2021/12/25 11:00:56;;;;;;;10.37;9.20;;;;;;;2.73;87.72;96681.91;6102505;29;20232;-89
2021/12/25 11:03:58;;;;;;;12.50;9.73;;;;;;;2.67;87.18;96679.69;6108534;29;20274;-89
2021/12/25 11:07:15;;;;;;;10.33;9.10;;;;;;;2.65;87.16;96688.53;6110946;28;20235;-89
2021/12/25 11:10:19;;;;;;;10.83;9.23;;;;;;;2.57;87.43;96687.28;6109748;28;20296;-89
2021/12/25 11:13:23;;;;;;;13.33;8.67;;;;;;;2.63;87.58;96657.38;6109476;28;20312;-89
2021/12/25 11:16:30;;;;;;;11.17;9.10;;;;;;;2.61;87.23;96656.63;6110761;28;20260;-90
2021/12/25 11:19:48;;;;;;;11.20;8.30;;;;;;;2.51;87.57;96689.41;6109738;28;20263;-89
2021/12/25 11:22:53;;;;;;;10.70;8.90;;;;;;;2.41;87.51;96683.13;6091901;29;20604;-89
2021/12/25 11:25:55;;;;;;;10.17;8.87;;;;;;;2.27;87.25;96657.16;6117415;28;20319;-89
2021/12/25 11:28:57;;;;;;;11.33;9.40;;;;;;;2.26;87.54;96660.69;6109859;28;20703;-90
2021/12/25 11:32:02;;;;;;;11.00;9.77;;;;;;;2.21;87.54;96674.81;6100582;29;20243;-88
2021/12/25 11:35:05;;;;;;;10.70;9.17;;;;;;;2.21;87.89;96656.59;6102179;29;20233;-90
2021/12/25 11:38:09;;;;;;;11.13;9.37;;;;;;;2.20;87.62;96660.13;6087944;29;20618;-89
2021/12/25 11:41:13;;;;;;;11.50;9.17;;;;;;;2.11;88.23;96678.09;6109500;28;20882;-89
2021/12/25 11:44:38;;;;;;;12.00;9.03;;;;;;;2.05;88.22;96676.72;6109323;28;20290;-90
2021/12/25 11:47:44;;;;;;;13.67;9.63;;;;;;;1.99;88.02;96703.13;6109319;28;20233;-89
2021/12/25 11:50:52;;;;;;;10.33;8.90;;;;;;;2.00;88.26;96644.09;6109117;28;20284;-89
2021/12/25 11:57:21;;;;;;;9.60;8.57;;;;;;;2.21;88.57;96667.00;6149295;28;20233;-89
2021/12/25 12:00:37;;;;;;;9.57;8.07;;;;;;;2.19;88.18;96653.28;6118689;28;20322;-90
2021/12/25 12:03:44;;;;;;;10.20;8.53;;;;;;;2.19;88.42;96661.09;6114328;28;20238;-90
2021/12/25 12:06:46;;;;;;;11.47;8.87;;;;;;;2.26;88.36;96671.09;6118686;28;20253;-89
2021/12/25 12:09:55;;;;;;;10.57;8.50;;;;;;;2.25;88.10;96648.59;6108397;28;20318;-89
2021/12/25 12:13:29;;;;;;;9.87;8.37;;;;;;;2.20;88.16;96648.88;6128658;28;20234;-91
2021/12/25 12:17:19;;;;;;;9.53;7.43;;;;;;;2.29;88.02;96643.13;6106308;29;20235;-90
2021/12/25 12:20:41;;;;;;;8.47;7.27;;;;;;;2.34;88.15;96661.03;6077112;28;20749;-91
2021/12/25 12:26:55;;;;;;;9.40;7.63;;;;;;;2.26;87.49;96643.31;6132565;28;20231;-90
2021/12/25 12:29:57;;;;;;;8.33;7.30;;;;;;;2.28;87.90;96648.41;6127879;28;20247;-89
2021/12/25 12:33:02;;;;;;;9.50;7.17;;;;;;;2.30;88.18;96654.34;6109243;28;20231;-89
2021/12/25 12:36:20;;;;;;;8.87;7.47;;;;;;;2.31;88.09;96666.41;6132175;28;20818;-90
2021/12/25 12:39:22;;;;;;;8.93;7.80;;;;;;;2.20;87.72;96665.34;6116884;28;20228;-90
2021/12/25 12:42:51;;;;;;;8.27;6.97;;;;;;;2.16;87.99;96653.47;6131965;28;20233;-90
2021/12/25 12:45:53;;;;;;;6.80;6.00;;;;;;;2.09;87.26;96656.56;6132323;28;20273;-89
2021/12/25 12:49:07;;;;;;;9.17;7.13;;;;;;;2.00;87.50;96675.31;6131737;28;20233;-89
2021/12/25 12:52:09;;;;;;;9.87;7.13;;;;;;;1.96;87.70;96666.06;6115604;28;20757;-89
2021/12/25 12:55:26;;;;;;;6.70;5.93;;;;;;;1.89;87.55;96663.00;6121438;28;20234;-89
2021/12/25 12:58:28;;;;;;;5.63;4.90;;;;;;;1.89;87.72;96677.78;6147064;28;20321;-89
2021/12/25 13:01:30;;;;;;;6.30;5.57;;;;;;;1.88;87.24;96673.50;6131133;28;20330;-89
2021/12/25 13:04:55;;;;;;;5.50;5.00;;;;;;;1.74;87.47;96671.75;6119853;28;20232;-89
2021/12/25 13:08:00;;;;;;;5.47;4.70;;;;;;;1.68;87.58;96661.72;6131497;28;20234;-89
2021/12/25 13:11:14;;;;;;;5.23;4.73;;;;;;;1.73;87.88;96670.06;6132674;28;20714;-89
2021/12/25 13:14:16;;;;;;;5.20;4.63;;;;;;;1.70;87.58;96673.69;6117260;28;20730;-89
2021/12/25 13:17:18;;;;;;;6.13;5.17;;;;;;;1.67;87.62;96673.88;6118641;28;20389;-89
2021/12/25 13:20:35;;;;;;;6.13;5.10;;;;;;;1.63;87.63;96677.59;6119719;28;20242;-89
2021/12/25 13:23:55;;;;;;;5.20;4.70;;;;;;;1.57;87.59;96682.34;6107949;28;20240;-89
2021/12/25 13:26:57;;;;;;;5.97;5.17;;;;;;;1.45;87.27;96695.16;6107926;28;20606;-89
2021/12/25 13:30:17;;;;;;;6.77;4.70;;;;;;;1.36;87.44;96703.50;6127175;28;20585;-89
2021/12/25 13:33:23;;;;;;;5.33;4.27;;;;;;;1.29;87.34;96712.59;6119584;28;20309;-89
2021/12/25 13:36:31;;;;;;;5.93;4.60;;;;;;;1.26;87.35;96712.75;6137771;28;20727;-89
2021/12/25 13:39:35;;;;;;;5.27;4.37;;;;;;;1.18;87.59;96712.38;6128461;28;20246;-89
2021/12/25 13:42:37;;;;;;;4.03;3.63;;;;;;;1.11;87.67;96724.88;6109963;28;20302;-89
2021/12/25 13:45:39;;;;;;;4.60;3.77;;;;;;;1.08;87.26;96724.22;6089923;28;20227;-89
2021/12/25 13:48:41;;;;;;;3.93;3.33;;;;;;;1.01;87.23;96722.91;6095324;28;20298;-89
2021/12/25 13:51:43;;;;;;;9.77;3.53;;;;;;;0.92;87.37;96726.84;6128057;28;20238;-89
2021/12/25 13:54:59;;;;;;;4.57;3.90;;;;;;;0.87;87.01;96749.69;6113648;28;20317;-89
2021/12/25 13:58:06;;;;;;;4.33;3.73;;;;;;;0.81;86.92;96747.41;6113079;28;20261;-89
2021/12/25 14:01:15;;;;;;;5.50;3.43;;;;;;;0.73;86.88;96741.81;6119378;28;20581;-89
2021/12/25 14:04:18;;;;;;;4.07;3.67;;;;;;;0.67;86.80;96756.00;6134457;28;20731;-89
2021/12/25 14:07:24;;;;;;;4.60;3.50;;;;;;;0.61;86.98;96764.09;6150321;28;20802;-89
2021/12/25 14:10:32;;;;;;;4.83;4.00;;;;;;;0.58;87.12;96772.09;6135152;28;20234;-89
2021/12/25 14:13:36;;;;;;;4.70;3.93;;;;;;;0.46;86.63;96777.94;6135707;28;20722;-89
2021/12/25 14:16:38;;;;;;;4.43;3.77;;;;;;;0.29;86.45;96781.47;6136312;28;20714;-89
2021/12/25 14:19:40;;;;;;;4.30;3.50;;;;;;;0.23;86.70;96784.38;6127953;28;20239;-90
2021/12/25 14:22:50;;;;;;;4.53;3.63;;;;;;;0.21;87.00;96798.31;6117109;28;20234;-89
2021/12/25 14:25:57;;;;;;;3.90;3.50;;;;;;;0.14;86.97;96828.13;6139216;28;20342;-89
2021/12/25 14:29:00;;;;;;;3.77;3.30;;;;;;;0.12;86.93;96823.00;6134978;28;20235;-89
2021/12/25 14:32:02;;;;;;;4.63;3.90;;;;;;;0.10;87.17;96826.63;6115346;28;20287;-88
2021/12/25 14:35:16;;;;;;;5.40;4.20;;;;;;;0.14;86.82;96836.75;6113029;28;20759;-89
2021/12/25 14:38:19;;;;;;;5.57;4.20;;;;;;;0.10;87.04;96831.81;6120161;28;21045;-89
2021/12/25 14:41:34;;;;;;;5.00;4.43;;;;;;;0.07;87.67;96844.94;6133319;28;20262;-89
2021/12/25 14:44:36;;;;;;;5.00;4.50;;;;;;;0.10;87.29;96848.19;6130312;28;20723;-90
2021/12/25 14:47:49;;;;;;;5.27;4.23;;;;;;;0.02;87.18;96854.69;6119534;28;20241;-90
2021/12/25 14:51:21;;;;;;;5.20;4.27;;;;;;;-0.20;86.72;96860.97;6111642;28;20321;-89
2021/12/25 14:54:31;;;;;;;6.27;4.70;;;;;;;-0.33;87.12;96875.47;6110390;28;20302;-89
2021/12/25 14:57:34;;;;;;;5.37;4.10;;;;;;;-0.48;86.42;96873.63;6092477;28;20235;-89
2021/12/25 15:00:36;;;;;;;5.40;3.80;;;;;;;-0.53;86.29;96881.66;6149847;28;20606;-89
2021/12/25 15:03:41;;;;;;;5.50;4.20;;;;;;;-0.50;86.32;96878.09;6124208;28;20716;-89
2021/12/25 15:07:06;;;;;;;4.37;3.50;;;;;;;-0.52;86.36;96870.38;6121774;28;20242;-89
2021/12/25 15:10:10;;;;;;;3.90;3.13;;;;;;;-0.60;85.61;96877.66;6126614;28;20236;-89
2021/12/25 15:13:15;;;;;;;3.87;3.10;;;;;;;-0.65;85.58;96884.84;6111166;28;20814;-88
2021/12/25 15:16:17;;;;;;;4.67;3.57;;;;;;;-0.60;85.60;96882.84;6111114;28;20238;-89
2021/12/25 15:19:25;;;;;;;3.90;3.17;;;;;;;-0.59;85.87;96886.28;6109802;28;20709;-89
2021/12/25 15:22:28;;;;;;;3.67;3.27;;;;;;;-0.63;86.13;96890.78;6111422;28;20811;-89
2021/12/25 15:25:33;;;;;;;5.20;3.43;;;;;;;-0.68;86.04;96889.31;6109976;28;20235;-89
2021/12/25 15:28:35;;;;;;;5.27;3.73;;;;;;;-0.69;86.51;96887.63;6110318;28;20231;-89
2021/12/25 15:31:43;;;;;;;4.37;3.50;;;;;;;-0.76;86.24;96895.72;6110035;28;20231;-89
2021/12/25 15:34:56;;;;;;;5.87;3.40;;;;;;;-0.81;86.20;96902.88;6092385;29;20759;-89
2021/12/25 15:38:00;;;;;;;4.07;3.60;;;;;;;-0.82;85.54;96902.94;6119596;28;20231;-89
2021/12/25 15:41:07;;;;;;;3.97;3.20;;;;;;;-0.88;85.28;96908.41;6125020;28;20628;-89
2021/12/25 15:44:10;;;;;;;4.97;3.23;;;;;;;-0.89;85.85;96920.50;6109896;28;20238;-88
2021/12/25 15:47:12;;;;;;;3.27;2.90;;;;;;;-0.86;85.80;96920.38;6109354;28;20242;-89
2021/12/25 15:50:19;;;;;;;4.20;3.33;;;;;;;-0.85;85.71;96926.41;6126611;28;20865;-89
2021/12/25 15:53:20;;;;;;;4.20;3.80;;;;;;;-0.88;86.05;96940.31;6109317;28;20403;-89
2021/12/25 15:56:24;;;;;;;3.93;3.43;;;;;;;-0.89;85.92;96937.81;6110395;28;20322;-89
2021/12/25 15:59:33;;;;;;;4.00;3.40;;;;;;;-0.89;86.33;96940.38;6087537;29;20235;-89
2021/12/25 16:02:35;;;;;;;4.17;3.10;;;;;;;-0.88;86.19;96940.31;6105502;28;20692;-89
2021/12/25 16:05:39;;;;;;;3.63;3.23;;;;;;;-0.92;86.18;96943.16;6118748;28;20227;-89
2021/12/25 16:08:41;;;;;;;4.67;3.50;;;;;;;-0.89;86.20;96950.75;6109847;28;20231;-89
2021/12/25 16:11:43;;;;;;;4.10;3.37;;;;;;;-0.90;86.45;96952.50;6109158;28;20605;-90
2021/12/25 16:14:59;;;;;;;4.87;3.90;;;;;;;-0.93;86.09;96957.84;6299485;27;20907;-71
2021/12/25 16:18:01;;;;;;;4.57;3.90;;;;;;;-0.94;86.42;96957.91;6273456;27;20222;-70